createdAt,value
2017-07-31T00:04:32.565Z,4.77
2017-07-31T00:07:04.419Z,5.17
2017-07-31T00:09:31.311Z,5.00
2017-07-31T00:11:59.650Z,5.20
2017-07-31T00:14:26.146Z,4.93
2017-07-31T00:16:53.096Z,5.47
2017-07-31T00:19:19.613Z,5.10
2017-07-31T00:21:46.854Z,5.47
2017-07-31T00:24:14.095Z,5.20
2017-07-31T00:26:41.330Z,5.90
2017-07-31T00:29:08.465Z,6.33
2017-07-31T00:31:35.443Z,6.17
2017-07-31T00:34:02.388Z,5.93
2017-07-31T00:36:34.083Z,5.27
2017-07-31T00:39:04.521Z,6.37
2017-07-31T00:41:31.441Z,6.03
2017-07-31T00:43:57.932Z,7.00
2017-07-31T00:46:24.402Z,6.50
2017-07-31T00:48:56.351Z,6.93
2017-07-31T00:51:23.048Z,6.90
2017-07-31T00:53:49.801Z,7.57
2017-07-31T00:56:16.409Z,7.30
2017-07-31T00:58:43.748Z,7.80
2017-07-31T01:01:10.341Z,6.33
2017-07-31T01:03:38.227Z,7.10
2017-07-31T01:06:10.149Z,5.20
2017-07-31T01:08:41.844Z,6.80
2017-07-31T01:11:08.435Z,5.20
2017-07-31T01:13:34.828Z,6.33
2017-07-31T01:16:01.622Z,5.40
2017-07-31T01:18:28.950Z,6.33
2017-07-31T01:20:58.365Z,6.87
2017-07-31T01:23:25.677Z,7.57
2017-07-31T01:25:52.490Z,7.27
2017-07-31T01:28:19.681Z,6.87
2017-07-31T01:30:46.379Z,6.60
2017-07-31T01:33:14.527Z,5.93
2017-07-31T01:35:41.189Z,6.40
2017-07-31T01:38:08.767Z,7.03
2017-07-31T01:40:35.153Z,7.40
2017-07-31T01:43:01.710Z,6.87
2017-07-31T01:45:28.184Z,7.13
2017-07-31T01:47:59.740Z,7.10
2017-07-31T01:50:27.690Z,6.80
2017-07-31T01:52:54.730Z,6.50
2017-07-31T01:55:23.325Z,5.70
2017-07-31T01:57:49.989Z,5.63
2017-07-31T02:00:16.510Z,6.83
2017-07-31T02:02:43.103Z,5.40
2017-07-31T02:05:09.506Z,6.37
2017-07-31T02:07:41.397Z,5.70
2017-07-31T02:10:07.954Z,6.43
2017-07-31T02:12:34.710Z,5.50
2017-07-31T02:15:06.313Z,5.17
2017-07-31T02:17:33.264Z,6.50
2017-07-31T02:20:00.734Z,6.27
2017-07-31T02:22:28.467Z,6.33
2017-07-31T02:24:54.980Z,6.57
2017-07-31T02:27:26.732Z,6.10
2017-07-31T02:29:53.107Z,6.67
2017-07-31T02:32:26.517Z,7.70
2017-07-31T02:34:52.980Z,5.70
2017-07-31T02:37:19.439Z,5.57
2017-07-31T02:39:47.283Z,6.30
2017-07-31T02:42:13.719Z,5.90
2017-07-31T02:44:45.483Z,6.00
2017-07-31T02:47:12.710Z,5.17
2017-07-31T02:49:39.324Z,6.17
2017-07-31T02:52:05.781Z,5.77
2017-07-31T02:54:37.892Z,5.67
2017-07-31T02:57:04.381Z,6.10
2017-07-31T02:59:30.964Z,5.17
2017-07-31T03:01:57.351Z,5.53
2017-07-31T03:04:24.720Z,5.80
2017-07-31T03:06:51.311Z,6.10
2017-07-31T03:09:18.123Z,5.80
2017-07-31T03:11:44.607Z,6.10
2017-07-31T03:14:11.146Z,5.27
2017-07-31T03:16:38.087Z,5.60
2017-07-31T03:19:04.853Z,5.10
2017-07-31T03:21:31.410Z,5.40
2017-07-31T03:24:02.907Z,5.60
2017-07-31T03:26:29.527Z,5.40
2017-07-31T03:28:55.939Z,5.40
2017-07-31T03:31:22.399Z,5.03
2017-07-31T03:33:51.790Z,6.60
2017-07-31T03:36:18.791Z,5.63
2017-07-31T03:38:45.584Z,5.93
2017-07-31T03:41:12.134Z,6.13
2017-07-31T03:43:39.278Z,6.40
2017-07-31T03:46:08.815Z,6.90
2017-07-31T03:48:40.568Z,5.87
2017-07-31T03:51:07.458Z,6.10
2017-07-31T03:53:39.037Z,6.17
2017-07-31T03:56:05.391Z,5.40
2017-07-31T03:58:31.846Z,6.20
2017-07-31T04:01:03.669Z,5.63
2017-07-31T04:03:33.539Z,6.17
2017-07-31T04:06:00.034Z,6.40
2017-07-31T04:08:26.599Z,5.83
2017-07-31T04:10:53.228Z,6.17
2017-07-31T04:13:20.044Z,5.10
2017-07-31T04:15:46.420Z,4.97
2017-07-31T04:18:13.011Z,7.07
2017-07-31T04:20:39.720Z,6.30
2017-07-31T04:23:06.139Z,6.80
2017-07-31T04:25:32.843Z,5.90
2017-07-31T04:27:59.232Z,7.40
2017-07-31T04:30:26.619Z,6.50
2017-07-31T04:32:53.085Z,6.80
2017-07-31T04:35:19.469Z,6.10
2017-07-31T04:37:51.641Z,5.60
2017-07-31T04:40:18.082Z,7.50
2017-07-31T04:42:44.624Z,6.33
2017-07-31T04:45:16.169Z,6.27
2017-07-31T04:47:42.757Z,5.00
2017-07-31T04:50:09.222Z,5.60
2017-07-31T04:52:36.148Z,4.97
2017-07-31T04:55:02.842Z,6.13
2017-07-31T04:57:29.215Z,6.90
2017-07-31T05:00:01.699Z,6.43
2017-07-31T05:02:28.065Z,5.17
2017-07-31T05:04:59.895Z,5.10
2017-07-31T05:07:26.594Z,5.40
2017-07-31T05:09:56.100Z,6.20
2017-07-31T05:12:22.636Z,5.67
2017-07-31T05:14:52.127Z,6.07
2017-07-31T05:17:18.517Z,5.90
2017-07-31T05:19:50.084Z,5.97
2017-07-31T05:22:22.551Z,6.30
2017-07-31T05:24:49.148Z,6.50
2017-07-31T05:27:15.697Z,5.70
2017-07-31T05:29:42.057Z,6.60
2017-07-31T05:32:13.535Z,7.00
2017-07-31T05:34:40.169Z,6.70
2017-07-31T05:37:09.628Z,5.50
2017-07-31T05:39:35.975Z,6.70
2017-07-31T05:42:02.657Z,6.60
2017-07-31T05:44:29.461Z,6.57
2017-07-31T05:46:55.991Z,7.50
2017-07-31T05:49:22.450Z,5.93
2017-07-31T05:51:49.044Z,6.40
2017-07-31T05:54:15.519Z,7.67
2017-07-31T05:56:41.987Z,6.00
2017-07-31T05:59:08.746Z,6.00
2017-07-31T06:01:35.153Z,5.30
2017-07-31T06:04:01.809Z,6.17
2017-07-31T06:06:28.389Z,5.10
2017-07-31T06:08:55.766Z,5.00
2017-07-31T06:11:22.981Z,5.70
2017-07-31T06:13:49.409Z,5.03
2017-07-31T06:16:15.859Z,4.70
2017-07-31T06:18:43.273Z,5.60
2017-07-31T06:21:09.822Z,4.63
2017-07-31T06:23:36.310Z,4.27
2017-07-31T06:26:08.241Z,4.70
2017-07-31T06:28:40.449Z,5.30
2017-07-31T06:31:07.004Z,5.03
2017-07-31T06:33:33.586Z,4.83
2017-07-31T06:36:05.167Z,5.17
2017-07-31T06:38:37.016Z,4.87
2017-07-31T06:41:04.678Z,4.23
2017-07-31T06:43:31.821Z,4.00
2017-07-31T06:45:58.206Z,4.60
2017-07-31T06:48:24.988Z,3.70
2017-07-31T06:50:51.509Z,3.80
2017-07-31T06:53:17.975Z,3.70
2017-07-31T06:55:50.378Z,3.53
2017-07-31T06:58:17.081Z,3.93
2017-07-31T07:00:43.878Z,3.60
2017-07-31T07:03:10.351Z,2.73
2017-07-31T07:05:36.927Z,3.30
2017-07-31T07:08:03.619Z,3.40
2017-07-31T07:10:30.019Z,3.37
2017-07-31T07:13:01.666Z,3.20
2017-07-31T07:15:28.120Z,3.47
2017-07-31T07:17:54.943Z,3.47
2017-07-31T07:20:21.481Z,2.90
2017-07-31T07:22:59.724Z,2.90
2017-07-31T07:25:26.241Z,2.90
2017-07-31T07:27:52.706Z,2.90
2017-07-31T07:30:19.714Z,2.30
2017-07-31T07:32:51.398Z,2.40
2017-07-31T07:35:18.147Z,2.60
2017-07-31T07:37:44.730Z,3.00
2017-07-31T07:40:11.157Z,2.20
2017-07-31T07:42:37.863Z,2.60
2017-07-31T07:45:09.468Z,2.03
2017-07-31T07:47:35.930Z,2.20
2017-07-31T07:50:07.474Z,2.87
2017-07-31T07:52:40.685Z,2.37
2017-07-31T07:55:07.467Z,1.70
2017-07-31T07:57:34.305Z,2.10
2017-07-31T08:00:00.785Z,2.07
2017-07-31T08:02:27.271Z,1.80
2017-07-31T08:04:56.669Z,2.03
2017-07-31T08:07:23.113Z,2.70
2017-07-31T08:09:49.818Z,2.03
2017-07-31T08:12:16.287Z,2.00
2017-07-31T08:14:43.078Z,1.87
2017-07-31T08:17:09.434Z,1.70
2017-07-31T08:19:35.993Z,2.00
2017-07-31T08:22:07.708Z,2.37
2017-07-31T08:24:34.469Z,2.23
2017-07-31T08:27:01.761Z,2.40
2017-07-31T08:29:33.334Z,2.13
2017-07-31T08:31:59.797Z,2.20
2017-07-31T08:34:26.190Z,2.23
2017-07-31T08:36:52.622Z,1.70
2017-07-31T08:39:19.100Z,2.20
2017-07-31T08:41:45.897Z,1.80
2017-07-31T08:44:12.327Z,2.20
2017-07-31T08:46:38.691Z,2.30
2017-07-31T08:49:05.049Z,1.90
2017-07-31T08:51:31.688Z,2.50
2017-07-31T08:53:58.387Z,2.30
2017-07-31T08:56:24.875Z,2.80
2017-07-31T08:58:51.626Z,2.30
2017-07-31T09:01:18.339Z,2.20
2017-07-31T09:03:44.835Z,2.33
2017-07-31T09:06:11.261Z,2.20
2017-07-31T09:08:37.609Z,2.63
2017-07-31T09:11:04.382Z,2.70
2017-07-31T09:13:30.825Z,2.90
2017-07-31T09:15:57.650Z,2.70
2017-07-31T09:18:24.107Z,2.73
2017-07-31T09:20:50.574Z,2.63
2017-07-31T09:23:16.937Z,2.53
2017-07-31T09:25:43.406Z,2.37
2017-07-31T09:28:10.243Z,2.47
2017-07-31T09:30:36.638Z,2.50
2017-07-31T09:33:03.448Z,2.70
2017-07-31T09:35:30.013Z,2.70
2017-07-31T09:38:02.550Z,2.07
2017-07-31T09:40:29.338Z,1.90
2017-07-31T09:42:55.904Z,2.40
2017-07-31T09:45:22.536Z,2.70
2017-07-31T09:47:48.990Z,2.00
2017-07-31T09:50:15.823Z,2.00
2017-07-31T09:52:42.749Z,1.57
2017-07-31T09:55:09.189Z,1.50
2017-07-31T09:57:35.562Z,1.70
2017-07-31T10:00:02.028Z,1.50
2017-07-31T10:02:28.862Z,1.20
2017-07-31T10:04:55.246Z,0.80
2017-07-31T10:07:22.423Z,1.10
2017-07-31T10:09:49.795Z,1.23
2017-07-31T10:12:16.798Z,1.23
2017-07-31T10:14:43.253Z,1.23
2017-07-31T10:17:09.911Z,1.37
2017-07-31T10:19:41.574Z,1.13
2017-07-31T10:22:08.883Z,1.20
2017-07-31T10:24:40.705Z,0.77
2017-07-31T10:27:12.478Z,1.07
2017-07-31T10:29:38.947Z,1.20
2017-07-31T10:32:06.441Z,1.30
2017-07-31T10:34:33.053Z,1.10
2017-07-31T10:37:03.644Z,1.17
2017-07-31T10:39:30.363Z,1.03
2017-07-31T10:41:56.903Z,1.23
2017-07-31T10:44:23.275Z,1.27
2017-07-31T10:46:52.635Z,1.30
2017-07-31T10:49:25.443Z,1.53
2017-07-31T10:51:51.876Z,1.13
2017-07-31T10:54:19.692Z,1.20
2017-07-31T10:56:46.528Z,1.13
2017-07-31T10:59:12.928Z,1.30
2017-07-31T11:01:39.278Z,0.80
2017-07-31T11:04:05.847Z,1.20
2017-07-31T11:06:32.252Z,1.43
2017-07-31T11:08:59.190Z,1.30
2017-07-31T11:11:26.005Z,1.33
2017-07-31T11:13:57.792Z,1.23
2017-07-31T11:16:26.404Z,1.40
2017-07-31T11:19:00.378Z,1.43
2017-07-31T11:21:30.312Z,1.20
2017-07-31T11:24:02.065Z,0.80
2017-07-31T11:26:28.560Z,1.20
2017-07-31T11:29:00.622Z,1.20
2017-07-31T11:31:27.311Z,1.50
2017-07-31T11:34:00.833Z,1.47
2017-07-31T11:36:28.235Z,1.30
2017-07-31T11:38:55.536Z,1.40
2017-07-31T11:41:22.689Z,1.60
2017-07-31T11:43:49.235Z,1.67
2017-07-31T11:46:15.793Z,1.90
2017-07-31T11:48:48.327Z,1.30
2017-07-31T11:51:14.874Z,1.90
2017-07-31T11:53:44.680Z,1.40
2017-07-31T11:56:11.634Z,1.63
2017-07-31T11:58:38.106Z,1.50
2017-07-31T12:01:04.597Z,1.40
2017-07-31T12:03:36.462Z,1.73
2017-07-31T12:06:03.287Z,1.70
2017-07-31T12:08:30.169Z,1.30
2017-07-31T12:10:56.614Z,1.67
2017-07-31T12:13:23.067Z,1.73
2017-07-31T12:15:49.622Z,1.30
2017-07-31T12:18:21.627Z,1.67
2017-07-31T12:20:53.579Z,1.47
2017-07-31T12:23:20.045Z,1.70
2017-07-31T12:25:47.184Z,1.20
2017-07-31T12:28:18.843Z,1.40
2017-07-31T12:30:50.433Z,1.33
2017-07-31T12:33:16.861Z,1.40
2017-07-31T12:35:43.243Z,1.60
2017-07-31T12:38:09.823Z,1.40
2017-07-31T12:40:36.349Z,1.40
2017-07-31T12:43:02.973Z,1.33
2017-07-31T12:45:29.771Z,1.17
2017-07-31T12:47:56.305Z,1.23
2017-07-31T12:50:22.684Z,1.37
2017-07-31T12:52:49.199Z,1.20
2017-07-31T12:55:16.503Z,1.30
2017-07-31T12:57:49.044Z,1.30
2017-07-31T13:00:15.473Z,1.03
2017-07-31T13:02:42.334Z,1.17
2017-07-31T13:05:09.128Z,1.30
2017-07-31T13:07:35.598Z,1.40
2017-07-31T13:10:03.482Z,1.20
2017-07-31T13:12:30.096Z,1.20
2017-07-31T13:14:56.720Z,1.33
2017-07-31T13:17:24.258Z,1.23
2017-07-31T13:19:56.274Z,1.20
2017-07-31T13:22:22.857Z,1.57
2017-07-31T13:24:49.295Z,1.67
2017-07-31T13:27:15.780Z,1.40
2017-07-31T13:29:42.269Z,1.60
2017-07-31T13:32:11.740Z,1.27
2017-07-31T13:34:38.628Z,1.60
2017-07-31T13:37:05.123Z,1.57
2017-07-31T13:39:32.139Z,1.80
2017-07-31T13:41:58.642Z,1.47
2017-07-31T13:44:32.524Z,1.70
2017-07-31T13:46:58.954Z,1.50
2017-07-31T13:49:30.671Z,1.20
2017-07-31T13:51:57.120Z,1.20
2017-07-31T13:54:23.492Z,1.40
2017-07-31T13:56:50.008Z,1.70
2017-07-31T13:59:17.076Z,1.47
2017-07-31T14:01:43.843Z,1.60
2017-07-31T14:04:10.281Z,1.10
2017-07-31T14:06:36.713Z,1.50
2017-07-31T14:09:03.451Z,1.43
2017-07-31T14:11:34.956Z,1.60
2017-07-31T14:14:01.897Z,1.70
2017-07-31T14:16:28.580Z,1.47
2017-07-31T14:19:00.475Z,1.60
2017-07-31T14:21:26.897Z,1.97
2017-07-31T14:23:53.261Z,1.67
2017-07-31T14:26:19.797Z,1.30
2017-07-31T14:28:46.232Z,1.40
2017-07-31T14:31:12.941Z,1.43
2017-07-31T14:33:39.530Z,1.27
2017-07-31T14:36:06.149Z,1.50
2017-07-31T14:38:32.641Z,1.37
2017-07-31T14:40:59.061Z,1.63
2017-07-31T14:43:25.576Z,1.70
2017-07-31T14:45:52.103Z,1.60
2017-07-31T14:48:18.672Z,1.63
2017-07-31T14:50:51.317Z,1.27
2017-07-31T14:53:23.201Z,1.27
2017-07-31T14:55:54.797Z,1.43
2017-07-31T14:58:21.255Z,1.50
2017-07-31T15:00:53.077Z,1.40
2017-07-31T15:03:19.430Z,1.37
2017-07-31T15:05:46.311Z,1.63
2017-07-31T15:08:12.866Z,1.30
2017-07-31T15:10:39.231Z,1.80
2017-07-31T15:13:05.692Z,1.20
2017-07-31T15:15:32.435Z,1.63
2017-07-31T15:17:58.793Z,1.40
2017-07-31T15:20:30.431Z,1.77
2017-07-31T15:22:57.300Z,1.60
2017-07-31T15:25:24.234Z,1.63
2017-07-31T15:27:50.603Z,1.50
2017-07-31T15:30:16.989Z,1.70
2017-07-31T15:32:43.413Z,1.50
2017-07-31T15:35:10.156Z,1.33
2017-07-31T15:37:37.367Z,1.40
2017-07-31T15:40:04.081Z,1.47
2017-07-31T15:42:30.506Z,1.60
2017-07-31T15:44:57.355Z,1.23
2017-07-31T15:47:24.029Z,1.30
2017-07-31T15:49:56.456Z,1.60
2017-07-31T15:52:23.022Z,1.50
2017-07-31T15:54:49.966Z,1.27
2017-07-31T15:57:16.654Z,1.60
2017-07-31T15:59:43.080Z,1.37
2017-07-31T16:02:09.442Z,1.73
2017-07-31T16:04:35.815Z,1.97
2017-07-31T16:07:02.177Z,1.37
2017-07-31T16:09:28.555Z,1.40
2017-07-31T16:11:54.925Z,1.63
2017-07-31T16:14:21.719Z,1.57
2017-07-31T16:16:48.078Z,1.43
2017-07-31T16:19:14.433Z,1.50
2017-07-31T16:21:40.890Z,1.63
2017-07-31T16:24:07.312Z,1.67
2017-07-31T16:26:33.733Z,1.63
2017-07-31T16:29:00.109Z,1.93
2017-07-31T16:31:26.510Z,1.60
2017-07-31T16:33:52.862Z,1.47
2017-07-31T16:36:19.280Z,1.30
2017-07-31T16:38:57.772Z,1.20
2017-07-31T16:41:35.051Z,1.70
2017-07-31T16:44:01.444Z,1.40
2017-07-31T16:46:27.912Z,1.50
2017-07-31T16:49:06.859Z,1.50
2017-07-31T16:51:33.326Z,1.37
2017-07-31T16:54:00.384Z,1.50
2017-07-31T16:56:27.521Z,1.50
2017-07-31T16:58:53.979Z,1.80
2017-07-31T17:01:20.580Z,1.83
2017-07-31T17:03:47.031Z,2.00
2017-07-31T17:06:13.512Z,1.70
2017-07-31T17:08:39.895Z,1.70
2017-07-31T17:11:06.288Z,1.70
2017-07-31T17:13:33.457Z,1.87
2017-07-31T17:15:59.856Z,1.40
2017-07-31T17:18:26.235Z,1.93
2017-07-31T17:20:52.603Z,1.67
2017-07-31T17:23:19.026Z,1.70
2017-07-31T17:25:45.416Z,1.57
2017-07-31T17:28:11.778Z,2.00
2017-07-31T17:30:38.126Z,1.50
2017-07-31T17:33:05.034Z,1.40
2017-07-31T17:35:31.467Z,1.70
2017-07-31T17:37:57.823Z,1.40
2017-07-31T17:40:24.234Z,1.60
2017-07-31T17:42:50.625Z,1.53
2017-07-31T17:45:18.665Z,1.90
2017-07-31T17:47:45.204Z,1.63
2017-07-31T17:50:11.596Z,1.60
2017-07-31T17:52:38.005Z,2.10
2017-07-31T17:55:04.410Z,1.97
2017-07-31T17:57:30.818Z,1.47
2017-07-31T17:59:57.241Z,1.60
2017-07-31T18:02:23.623Z,1.50
2017-07-31T18:04:50.016Z,1.60
2017-07-31T18:07:16.403Z,1.53
2017-07-31T18:09:42.813Z,1.47
2017-07-31T18:12:09.293Z,1.60
2017-07-31T18:14:35.706Z,1.73
2017-07-31T18:17:02.054Z,1.30
2017-07-31T18:19:28.399Z,1.43
2017-07-31T18:21:54.763Z,2.10
2017-07-31T18:24:21.231Z,1.73
2017-07-31T18:26:47.612Z,1.67
2017-07-31T18:29:14.033Z,1.67
2017-07-31T18:31:40.437Z,1.70
2017-07-31T18:34:06.827Z,1.80
2017-07-31T18:36:34.024Z,2.23
2017-07-31T18:39:00.452Z,1.90
2017-07-31T18:41:26.823Z,2.10
2017-07-31T18:43:53.247Z,1.77
2017-07-31T18:46:19.687Z,2.00
2017-07-31T18:48:46.061Z,2.30
2017-07-31T18:51:12.433Z,2.23
2017-07-31T18:53:38.933Z,2.47
2017-07-31T18:56:05.356Z,2.23
2017-07-31T18:58:31.777Z,2.40
2017-07-31T19:00:58.149Z,1.97
2017-07-31T19:03:24.524Z,1.97
2017-07-31T19:05:50.922Z,2.23
2017-07-31T19:08:17.437Z,2.23
2017-07-31T19:10:43.876Z,2.57
2017-07-31T19:13:10.277Z,2.63
2017-07-31T19:15:36.759Z,2.10
2017-07-31T19:18:03.171Z,2.30
2017-07-31T19:20:29.559Z,2.17
2017-07-31T19:22:55.955Z,2.30
2017-07-31T19:25:22.350Z,2.83
2017-07-31T19:27:48.790Z,2.23
2017-07-31T19:30:15.189Z,2.13
2017-07-31T19:32:41.639Z,2.50
2017-07-31T19:35:08.050Z,2.27
2017-07-31T19:37:34.454Z,2.40
2017-07-31T19:40:00.912Z,2.53
2017-07-31T19:42:27.299Z,2.30
2017-07-31T19:44:53.702Z,3.30
2017-07-31T19:47:20.113Z,3.07
2017-07-31T19:49:46.499Z,2.60
2017-07-31T19:52:12.939Z,2.23
2017-07-31T19:54:39.337Z,3.00
2017-07-31T19:57:05.739Z,3.13
2017-07-31T19:59:32.126Z,2.50
2017-07-31T20:01:58.524Z,2.53
2017-07-31T20:04:24.909Z,2.80
2017-07-31T20:06:51.297Z,2.60
2017-07-31T20:09:18.206Z,3.20
2017-07-31T20:11:44.618Z,2.60
2017-07-31T20:14:11.002Z,3.73
2017-07-31T20:16:37.372Z,3.53
2017-07-31T20:19:03.748Z,2.90
2017-07-31T20:21:30.107Z,3.40
2017-07-31T20:23:56.444Z,3.10
2017-07-31T20:26:22.808Z,3.67
2017-07-31T20:28:49.160Z,3.43
2017-07-31T20:31:15.521Z,3.20
2017-07-31T20:33:41.886Z,3.40
2017-07-31T20:36:08.273Z,3.33
2017-07-31T20:38:34.656Z,2.50
2017-07-31T20:41:01.047Z,2.83
2017-07-31T20:43:27.421Z,3.50
2017-07-31T20:45:53.832Z,2.80
2017-07-31T20:48:20.198Z,3.47
2017-07-31T20:50:46.538Z,2.80
2017-07-31T20:53:12.934Z,2.90
2017-07-31T20:55:39.309Z,2.90
2017-07-31T20:58:05.681Z,2.73
2017-07-31T21:00:32.062Z,2.60
2017-07-31T21:02:58.420Z,3.27
2017-07-31T21:05:24.815Z,3.67
2017-07-31T21:07:51.174Z,2.67
2017-07-31T21:10:17.527Z,3.43
2017-07-31T21:12:43.934Z,3.50
2017-07-31T21:15:10.323Z,3.57
2017-07-31T21:17:36.716Z,2.97
2017-07-31T21:20:03.062Z,3.40
2017-07-31T21:22:29.387Z,3.40
2017-07-31T21:24:55.751Z,3.77
2017-07-31T21:27:22.126Z,3.33
2017-07-31T21:29:48.499Z,3.37
2017-07-31T21:32:14.886Z,3.90
2017-07-31T21:34:41.258Z,4.00
2017-07-31T21:37:07.622Z,3.40
2017-07-31T21:39:33.965Z,3.70
2017-07-31T21:42:00.336Z,2.60
2017-07-31T21:44:26.728Z,3.63
2017-07-31T21:46:53.083Z,3.10
2017-07-31T21:49:19.446Z,3.67
2017-07-31T21:51:45.820Z,3.33
2017-07-31T21:54:12.223Z,3.20
2017-07-31T21:56:38.618Z,3.50
2017-07-31T21:59:04.974Z,3.40
2017-07-31T22:01:31.370Z,3.33
2017-07-31T22:03:57.755Z,3.93
2017-07-31T22:06:24.133Z,3.40
2017-07-31T22:08:50.510Z,3.77
2017-07-31T22:11:16.858Z,3.37
2017-07-31T22:13:43.174Z,4.17
2017-07-31T22:16:09.585Z,3.83
2017-07-31T22:18:35.988Z,3.20
2017-07-31T22:21:08.505Z,3.80
2017-07-31T22:23:34.920Z,3.33
2017-07-31T22:26:01.294Z,3.60
2017-07-31T22:28:27.692Z,4.60
2017-07-31T22:30:54.113Z,2.97
2017-07-31T22:33:20.492Z,3.80
2017-07-31T22:35:46.864Z,3.80
2017-07-31T22:38:13.203Z,3.37
2017-07-31T22:40:39.629Z,3.37
2017-07-31T22:43:06.016Z,3.63
2017-07-31T22:45:32.366Z,4.53
2017-07-31T22:47:58.749Z,3.57
2017-07-31T22:50:25.120Z,3.97
2017-07-31T22:52:51.489Z,3.87
2017-07-31T22:55:17.878Z,3.30
2017-07-31T22:57:44.233Z,3.23
2017-07-31T23:00:10.562Z,3.80
2017-07-31T23:02:36.907Z,3.80
2017-07-31T23:05:03.731Z,3.70
2017-07-31T23:07:30.125Z,3.63
2017-07-31T23:09:56.883Z,3.37
2017-07-31T23:12:23.384Z,3.87
2017-07-31T23:14:49.750Z,3.57
2017-07-31T23:17:16.221Z,3.73
2017-07-31T23:19:42.588Z,3.50
2017-07-31T23:22:08.968Z,3.60
2017-07-31T23:24:35.357Z,4.73
2017-07-31T23:27:02.816Z,3.20
2017-07-31T23:29:29.238Z,3.63
2017-07-31T23:31:55.833Z,3.60
2017-07-31T23:34:22.230Z,3.90
2017-07-31T23:36:48.746Z,3.73
2017-07-31T23:39:15.121Z,3.80
2017-07-31T23:41:41.528Z,3.90
2017-07-31T23:44:07.943Z,3.63
2017-07-31T23:46:34.439Z,3.10
2017-07-31T23:49:00.878Z,3.50
2017-07-31T23:51:27.287Z,3.93
2017-07-31T23:53:53.681Z,3.13
2017-07-31T23:56:20.278Z,4.47
2017-07-31T23:58:46.685Z,3.57
